Time;durP1;ratioP1;P1;durP2;ratioP2;P2;SDS_P1;SDS_P2;PMS_P1;PMS_P2;Temp;Humidity;BMP_temperature;BMP_pressure;BME280_temperature;BME280_humidity;BME280_pressure;Samples;Min_cycle;Max_cycle;Signal;HPM_P1;HPM_P2
2023/04/26 00:02:20;;;;;;;7.60;4.40;;;;;;;7.19;100.00;99830.76;106933;1274;22583;-68
2023/04/26 00:04:56;;;;;;;8.00;4.00;;;;;;;7.15;100.00;99841.06;107066;1274;22814;-68
2023/04/26 00:07:24;;;;;;;5.60;3.90;;;;;;;7.11;100.00;99848.93;106938;1274;22528;-68
2023/04/26 00:09:52;;;;;;;8.60;4.50;;;;;;;7.06;100.00;99870.58;106989;1274;22592;-68
2023/04/26 00:12:19;;;;;;;8.20;4.30;;;;;;;7.01;100.00;99877.73;106813;1274;22983;-68
2023/04/26 00:14:46;;;;;;;8.40;4.20;;;;;;;6.97;100.00;99891.87;106705;1274;22948;-68
2023/04/26 00:17:14;;;;;;;9.30;4.30;;;;;;;6.96;100.00;99903.12;106889;1274;22782;-68
2023/04/26 00:19:42;;;;;;;6.00;3.90;;;;;;;6.96;100.00;99919.80;106979;1274;22579;-68
2023/04/26 00:22:09;;;;;;;9.70;4.00;;;;;;;6.96;100.00;99934.98;106934;1274;24220;-68
2023/04/26 00:24:37;;;;;;;8.70;4.40;;;;;;;6.97;100.00;99950.67;106937;1274;25607;-68
2023/04/26 00:27:08;;;;;;;8.60;4.60;;;;;;;6.98;100.00;99963.70;106902;1274;22620;-68
2023/04/26 00:29:36;;;;;;;5.60;4.00;;;;;;;6.98;100.00;99973.91;106784;1274;24441;-67
2023/04/26 00:32:04;;;;;;;7.10;4.30;;;;;;;6.97;100.00;99987.40;106952;1274;22640;-68
2023/04/26 00:34:35;;;;;;;7.40;4.20;;;;;;;6.96;100.00;99994.33;106956;1274;24486;-68
2023/04/26 00:37:04;;;;;;;7.80;4.20;;;;;;;6.95;100.00;99999.45;106967;1274;22523;-68
2023/04/26 00:39:31;;;;;;;9.90;4.50;;;;;;;6.95;100.00;100008.92;106985;1274;23894;-68
2023/04/26 00:41:58;;;;;;;10.40;5.10;;;;;;;6.95;100.00;100013.08;106936;1274;22514;-68
2023/04/26 00:44:26;;;;;;;7.50;4.40;;;;;;;6.95;100.00;100018.32;106963;1274;22517;-68
2023/04/26 00:46:53;;;;;;;10.60;4.80;;;;;;;6.93;100.00;100040.73;106942;1274;22531;-68
2023/04/26 00:49:22;;;;;;;7.20;4.70;;;;;;;6.94;100.00;100040.27;106803;1274;22536;-68
2023/04/26 00:51:53;;;;;;;11.60;4.60;;;;;;;6.93;100.00;100034.97;106931;1274;22520;-68
2023/04/26 00:54:20;;;;;;;5.80;4.20;;;;;;;6.91;100.00;100042.70;106958;1274;22533;-68
2023/04/26 00:56:50;;;;;;;7.00;4.00;;;;;;;6.89;100.00;100049.89;106918;1274;22517;-68
2023/04/26 00:59:21;;;;;;;9.80;4.10;;;;;;;6.86;100.00;100053.35;106802;1274;24397;-68
2023/04/26 01:01:48;;;;;;;8.40;3.90;;;;;;;6.82;100.00;100050.85;106811;1274;24264;-68
2023/04/26 01:04:16;;;;;;;9.80;4.40;;;;;;;6.80;100.00;100048.02;106913;1274;22520;-68
2023/04/26 01:06:44;;;;;;;7.00;4.20;;;;;;;6.78;100.00;100056.46;106937;1274;22631;-68
2023/04/26 01:09:14;;;;;;;8.90;4.10;;;;;;;6.74;100.00;100056.83;106825;1274;22526;-68
2023/04/26 01:11:42;;;;;;;6.30;4.30;;;;;;;6.72;100.00;100056.29;106825;1274;22624;-68
2023/04/26 01:14:10;;;;;;;6.30;4.40;;;;;;;6.69;100.00;100059.31;106746;1274;25291;-68
2023/04/26 01:16:39;;;;;;;6.90;4.10;;;;;;;6.65;100.00;100065.25;106874;1274;22521;-68
2023/04/26 01:19:11;;;;;;;10.10;4.80;;;;;;;6.62;100.00;100053.17;106951;1274;22965;-68
2023/04/26 01:21:39;;;;;;;7.50;4.20;;;;;;;6.59;100.00;100051.45;106944;1274;25362;-68
2023/04/26 01:24:09;;;;;;;8.30;4.70;;;;;;;6.55;100.00;100013.13;106921;1274;24388;-68
2023/04/26 01:26:44;;;;;;;8.90;4.60;;;;;;;6.52;100.00;99985.67;106219;1274;1003680;-68
2023/04/26 01:29:13;;;;;;;8.00;4.90;;;;;;;6.49;100.00;99982.02;106913;1274;22755;-68
2023/04/26 01:31:41;;;;;;;9.80;5.10;;;;;;;6.46;100.00;99987.80;106963;1274;24216;-68
2023/04/26 01:34:08;;;;;;;8.00;4.80;;;;;;;6.43;100.00;99991.52;106924;1274;24436;-68
2023/04/26 01:36:36;;;;;;;6.80;4.60;;;;;;;6.39;100.00;99990.60;106910;1274;25262;-68
2023/04/26 01:39:04;;;;;;;9.60;5.00;;;;;;;6.37;100.00;99986.75;106936;1274;22763;-68
2023/04/26 01:41:32;;;;;;;9.70;4.80;;;;;;;6.34;100.00;99987.69;106810;1274;22753;-68
2023/04/26 01:44:00;;;;;;;13.30;5.60;;;;;;;6.32;100.00;99986.49;106967;1274;24470;-68
2023/04/26 01:46:27;;;;;;;10.80;5.60;;;;;;;6.31;100.00;99989.63;106944;1274;25685;-68
2023/04/26 01:48:56;;;;;;;8.10;5.30;;;;;;;6.31;100.00;99989.32;106871;1274;22541;-68
2023/04/26 01:51:23;;;;;;;9.50;5.50;;;;;;;6.30;100.00;99993.83;106920;1274;22525;-68
2023/04/26 01:53:50;;;;;;;12.20;5.30;;;;;;;6.31;100.00;99999.13;106801;1274;22524;-68
2023/04/26 01:56:18;;;;;;;12.30;6.10;;;;;;;6.31;100.00;100002.02;106888;1274;24384;-68
2023/04/26 01:58:46;;;;;;;15.00;7.10;;;;;;;6.29;100.00;100009.85;106975;1274;24275;-68
2023/04/26 02:01:13;;;;;;;14.70;6.60;;;;;;;6.29;100.00;100007.05;106907;1274;25655;-68
2023/04/26 02:03:43;;;;;;;19.90;8.10;;;;;;;6.28;100.00;100003.48;106941;1274;25249;-68
2023/04/26 02:06:11;;;;;;;19.10;8.40;;;;;;;6.28;100.00;99998.52;106878;1274;22518;-68
2023/04/26 02:08:38;;;;;;;21.70;9.90;;;;;;;6.27;100.00;99998.80;106910;1274;24274;-68
2023/04/26 02:11:06;;;;;;;21.00;9.40;;;;;;;6.26;100.00;100000.46;106880;1274;25572;-68
2023/04/26 02:13:35;;;;;;;21.20;9.00;;;;;;;6.25;100.00;99994.95;106894;1274;25236;-68
2023/04/26 02:16:03;;;;;;;28.10;12.60;;;;;;;6.25;100.00;99991.24;106865;1274;22519;-68
2023/04/26 02:18:30;;;;;;;19.00;9.40;;;;;;;6.25;100.00;99986.80;106902;1274;22521;-68
2023/04/26 02:20:58;;;;;;;21.00;9.20;;;;;;;6.25;100.00;99997.91;106910;1274;24279;-68
2023/04/26 02:23:25;;;;;;;20.00;8.40;;;;;;;6.24;100.00;100006.23;107959;1274;24144;-67
2023/04/26 02:25:52;;;;;;;17.40;7.70;;;;;;;6.24;100.00;100014.79;108324;1274;22521;-68
2023/04/26 02:28:20;;;;;;;14.00;6.80;;;;;;;6.23;100.00;100016.27;107330;1274;24230;-68
2023/04/26 02:30:47;;;;;;;12.60;6.50;;;;;;;6.23;100.00;100025.63;106922;1274;22520;-68
2023/04/26 02:33:14;;;;;;;11.70;6.70;;;;;;;6.24;100.00;100021.64;106910;1274;22628;-68
2023/04/26 02:35:42;;;;;;;10.20;5.70;;;;;;;6.23;100.00;100016.81;106874;1274;24243;-68
2023/04/26 02:38:09;;;;;;;10.60;5.60;;;;;;;6.23;100.00;100016.13;107078;1274;22546;-68
2023/04/26 02:40:37;;;;;;;11.70;6.00;;;;;;;6.22;100.00;100015.65;106920;1274;22779;-68
2023/04/26 02:43:06;;;;;;;12.70;5.60;;;;;;;6.22;100.00;100015.70;106946;1274;22523;-68
2023/04/26 02:45:33;;;;;;;13.90;5.70;;;;;;;6.23;100.00;100015.08;106791;1274;24902;-68
2023/04/26 02:48:00;;;;;;;11.90;5.60;;;;;;;6.23;100.00;100008.05;106815;1274;22545;-68
2023/04/26 02:50:28;;;;;;;11.10;5.80;;;;;;;6.24;100.00;100003.98;106901;1274;25288;-68
2023/04/26 02:52:55;;;;;;;9.90;5.40;;;;;;;6.26;100.00;100002.80;106872;1274;22962;-68
2023/04/26 02:55:23;;;;;;;11.80;5.90;;;;;;;6.27;100.00;99997.16;106871;1274;25598;-68
2023/04/26 02:57:50;;;;;;;12.00;5.40;;;;;;;6.29;100.00;99991.25;106768;1274;22530;-68
2023/04/26 03:00:17;;;;;;;9.30;5.30;;;;;;;6.30;100.00;99987.73;106759;1274;22650;-67
2023/04/26 03:02:45;;;;;;;16.30;6.00;;;;;;;6.32;100.00;99987.40;106761;1274;25590;-68
2023/04/26 03:05:12;;;;;;;15.30;5.90;;;;;;;6.34;100.00;99983.45;106636;1274;22511;-68
2023/04/26 03:07:40;;;;;;;11.30;6.00;;;;;;;6.35;100.00;100016.10;106664;1274;25290;-69
2023/04/26 03:10:08;;;;;;;9.30;5.60;;;;;;;6.36;100.00;100013.67;106734;1274;22527;-67
2023/04/26 03:12:36;;;;;;;12.50;5.50;;;;;;;6.37;100.00;100013.18;106767;1274;25610;-67
2023/04/26 03:15:04;;;;;;;10.60;5.60;;;;;;;6.39;100.00;100008.77;106904;1274;25300;-68
2023/04/26 03:17:32;;;;;;;12.50;5.80;;;;;;;6.39;100.00;100003.13;106815;1274;22526;-67
2023/04/26 03:19:59;;;;;;;11.30;5.60;;;;;;;6.42;100.00;100004.33;106819;1274;22523;-68
2023/04/26 03:22:28;;;;;;;12.60;5.90;;;;;;;6.44;100.00;100001.80;106888;1274;25341;-67
2023/04/26 03:24:56;;;;;;;11.30;5.60;;;;;;;6.45;100.00;100001.66;106886;1274;23126;-68
2023/04/26 03:27:25;;;;;;;10.20;5.50;;;;;;;6.48;100.00;99991.79;106910;1274;24666;-67
2023/04/26 03:29:52;;;;;;;13.70;5.50;;;;;;;6.51;100.00;99987.20;106927;1274;25263;-68
2023/04/26 03:32:20;;;;;;;12.10;5.80;;;;;;;6.53;100.00;99980.77;106970;1274;25306;-68
2023/04/26 03:34:48;;;;;;;12.90;6.00;;;;;;;6.55;100.00;99979.77;106810;1274;25240;-67
2023/04/26 03:37:16;;;;;;;16.10;5.90;;;;;;;6.61;100.00;100014.91;106924;1274;22527;-68
2023/04/26 03:39:45;;;;;;;14.70;6.50;;;;;;;6.65;100.00;100012.00;106093;1274;1003518;-67
2023/04/26 03:42:13;;;;;;;14.70;6.70;;;;;;;6.69;100.00;100037.40;106846;1274;22633;-67
2023/04/26 03:44:40;;;;;;;15.00;7.10;;;;;;;6.74;100.00;100029.21;106855;1274;22517;-68
2023/04/26 03:47:07;;;;;;;19.10;7.30;;;;;;;6.81;100.00;100018.21;106801;1274;22637;-68
2023/04/26 03:49:35;;;;;;;21.00;8.00;;;;;;;6.87;100.00;100001.46;106892;1274;22541;-68
2023/04/26 03:52:03;;;;;;;19.30;7.90;;;;;;;6.94;100.00;99995.80;106031;1274;1003067;-68
2023/04/26 03:54:30;;;;;;;17.20;7.60;;;;;;;7.00;100.00;99991.92;106949;1274;22547;-68
2023/04/26 03:56:58;;;;;;;23.10;8.70;;;;;;;7.06;100.00;99985.89;106888;1274;25461;-67
2023/04/26 03:59:25;;;;;;;19.20;8.40;;;;;;;7.11;100.00;99978.23;106895;1274;25341;-67
2023/04/26 04:01:52;;;;;;;19.40;8.50;;;;;;;7.17;100.00;99975.45;106821;1274;22531;-68
2023/04/26 04:04:20;;;;;;;21.10;9.00;;;;;;;7.23;100.00;99973.45;106869;1274;22643;-67
2023/04/26 04:06:48;;;;;;;25.40;10.10;;;;;;;7.30;100.00;99971.11;106855;1274;22526;-67
2023/04/26 04:09:16;;;;;;;30.20;11.70;;;;;;;7.38;100.00;99966.42;106968;1274;25287;-67
2023/04/26 04:11:44;;;;;;;23.30;11.30;;;;;;;7.48;100.00;99961.45;106865;1274;22566;-67
2023/04/26 04:14:13;;;;;;;24.60;10.90;;;;;;;7.59;100.00;99949.47;106778;1274;22515;-67
2023/04/26 04:16:40;;;;;;;28.60;12.00;;;;;;;7.70;100.00;99937.91;106843;1274;23049;-68
2023/04/26 04:19:08;;;;;;;29.30;11.80;;;;;;;7.82;100.00;99921.09;106907;1274;22527;-67
2023/04/26 04:21:36;;;;;;;30.50;13.40;;;;;;;7.95;100.00;99910.44;106800;1274;25297;-67
2023/04/26 04:24:04;;;;;;;34.20;13.60;;;;;;;8.08;100.00;99888.41;106816;1274;22738;-68
2023/04/26 04:26:31;;;;;;;30.60;13.10;;;;;;;8.21;100.00;99876.34;106812;1274;25592;-67
2023/04/26 04:29:07;;;;;;;30.30;14.10;;;;;;;8.35;100.00;99869.84;106877;1274;25374;-68
2023/04/26 04:31:38;;;;;;;28.40;13.90;;;;;;;8.51;100.00;99855.50;106877;1274;25040;-67
2023/04/26 04:34:07;;;;;;;31.60;12.50;;;;;;;8.66;100.00;99851.89;106909;1274;22532;-69
2023/04/26 04:36:39;;;;;;;33.40;13.70;;;;;;;8.80;100.00;99847.92;106895;1274;22513;-67
2023/04/26 04:39:12;;;;;;;31.30;14.60;;;;;;;8.96;100.00;99843.71;106892;1274;22520;-67
2023/04/26 04:41:46;;;;;;;31.90;16.40;;;;;;;9.11;100.00;99837.73;106909;1274;25025;-67
2023/04/26 04:44:15;;;;;;;35.80;15.50;;;;;;;9.28;100.00;99832.16;106845;1274;22571;-67
2023/04/26 04:46:43;;;;;;;32.30;14.80;;;;;;;9.43;100.00;99831.52;106910;1274;25309;-67
2023/04/26 04:49:14;;;;;;;31.80;15.10;;;;;;;9.61;100.00;99831.70;106921;1274;22601;-67
2023/04/26 04:51:42;;;;;;;35.30;15.40;;;;;;;9.82;100.00;99831.41;106912;1274;25277;-67
2023/04/26 04:54:33;;;;;;;31.40;13.80;;;;;;;10.04;100.00;99834.84;106886;1274;25700;-67
2023/04/26 04:57:01;;;;;;;27.10;12.70;;;;;;;10.30;100.00;99838.40;106904;1274;22510;-67
2023/04/26 04:59:32;;;;;;;25.20;13.20;;;;;;;10.53;100.00;99842.11;106853;1274;25194;-67
2023/04/26 05:02:00;;;;;;;26.30;12.60;;;;;;;10.76;100.00;99853.77;106905;1274;25260;-67
2023/04/26 05:04:27;;;;;;;28.40;12.40;;;;;;;11.01;100.00;99869.52;106926;1274;24646;-66
2023/04/26 05:06:55;;;;;;;26.80;11.90;;;;;;;11.25;100.00;99896.30;106913;1274;24631;-67
2023/04/26 05:09:23;;;;;;;34.00;18.10;;;;;;;11.45;100.00;99920.34;106764;1267;24393;-65
2023/04/26 05:11:50;;;;;;;41.80;25.30;;;;;;;11.61;100.00;99955.80;106837;1274;24889;-68
2023/04/26 05:14:19;;;;;;;32.50;19.70;;;;;;;11.77;100.00;99986.02;106968;1272;26497;-69
2023/04/26 05:16:46;;;;;;;31.10;14.30;;;;;;;11.96;100.00;100027.20;106958;1274;22516;-67
2023/04/26 05:19:14;;;;;;;34.90;18.10;;;;;;;12.15;100.00;100062.63;106782;1274;22641;-65
2023/04/26 05:21:41;;;;;;;33.30;16.40;;;;;;;12.32;100.00;100075.17;106725;1267;22521;-67
2023/04/26 05:24:09;;;;;;;28.50;13.70;;;;;;;12.53;100.00;100091.89;106858;1274;22604;-69
2023/04/26 05:26:36;;;;;;;30.90;13.30;;;;;;;12.79;100.00;100116.52;106831;1274;25309;-69
2023/04/26 05:29:06;;;;;;;36.00;15.10;;;;;;;12.98;100.00;100131.40;107017;1274;24492;-68
2023/04/26 05:32:00;;;;;;;;;;;;;;;13.16;100.00;100080.34;106870;1274;24233;-68
2023/04/26 05:34:46;;;;;;;28.70;12.60;;;;;;;13.36;100.00;100019.65;106894;1274;25320;-70
2023/04/26 05:37:16;;;;;;;29.00;13.50;;;;;;;13.52;100.00;99964.14;107071;1274;22530;-69
2023/04/26 05:39:43;;;;;;;32.10;13.70;;;;;;;13.70;100.00;99907.35;106993;1274;24313;-67
2023/04/26 05:42:11;;;;;;;28.10;12.20;;;;;;;13.92;100.00;99866.44;107017;1274;25348;-67
2023/04/26 05:44:38;;;;;;;26.10;12.10;;;;;;;14.14;100.00;99826.86;106923;1274;24653;-68
2023/04/26 05:47:07;;;;;;;28.60;12.30;;;;;;;14.32;100.00;99772.62;106939;1273;24282;-69
2023/04/26 05:49:34;;;;;;;37.70;20.30;;;;;;;14.47;100.00;99726.70;106998;1269;23251;-72
2023/04/26 05:52:03;;;;;;;33.10;17.60;;;;;;;14.46;100.00;99673.24;106926;1273;25322;-71
2023/04/26 05:54:30;;;;;;;61.80;40.10;;;;;;;14.46;100.00;99647.48;106927;1273;22729;-72
2023/04/26 05:56:58;;;;;;;32.20;15.50;;;;;;;14.56;100.00;99627.90;106835;1274;22529;-73
2023/04/26 05:59:30;;;;;;;30.20;15.20;;;;;;;14.70;100.00;99607.13;107011;1269;24730;-73
2023/04/26 06:01:57;;;;;;;26.40;13.70;;;;;;;14.78;100.00;99584.11;107075;1267;22511;-70
2023/04/26 06:04:25;;;;;;;27.10;12.70;;;;;;;14.84;100.00;99543.16;107156;1269;24224;-70
2023/04/26 06:07:06;;;;;;;26.10;12.00;;;;;;;14.97;100.00;99504.20;106980;1273;22531;-70
2023/04/26 06:09:33;;;;;;;25.60;10.60;;;;;;;15.11;100.00;99489.00;106898;1270;22599;-70
2023/04/26 06:12:01;;;;;;;19.90;8.90;;;;;;;15.32;100.00;99449.23;107039;1269;24328;-70
2023/04/26 06:14:29;;;;;;;25.80;11.50;;;;;;;15.47;100.00;99367.68;107042;1272;22520;-70
2023/04/26 06:17:01;;;;;;;24.10;9.00;;;;;;;15.65;100.00;99301.73;107045;1272;26487;-68
2023/04/26 06:19:29;;;;;;;23.40;8.90;;;;;;;15.91;100.00;99268.16;107019;1267;22646;-74
2023/04/26 06:21:56;;;;;;;21.40;8.90;;;;;;;16.25;100.00;99243.92;107050;1274;24559;-70
2023/04/26 06:24:24;;;;;;;17.70;7.30;;;;;;;16.52;100.00;99186.84;107137;1252;23397;-71
2023/04/26 06:26:53;;;;;;;17.40;8.10;;;;;;;16.65;100.00;99124.93;106979;1270;25291;-71
2023/04/26 06:29:20;;;;;;;16.90;7.90;;;;;;;16.78;100.00;99087.08;106962;1273;24382;-73
2023/04/26 06:31:48;;;;;;;24.80;10.60;;;;;;;16.88;100.00;99033.13;106978;1274;22646;-72
2023/04/26 06:34:17;;;;;;;18.70;6.80;;;;;;;17.05;100.00;98951.67;106821;1274;24299;-72
2023/04/26 06:36:45;;;;;;;18.20;8.80;;;;;;;17.06;100.00;98798.59;107006;1268;23926;-74
2023/04/26 06:39:12;;;;;;;23.60;11.40;;;;;;;16.98;100.00;98739.90;106865;1268;25274;-71
2023/04/26 06:41:41;;;;;;;17.70;7.80;;;;;;;17.07;100.00;98737.89;106881;1273;25242;-71
2023/04/26 06:44:10;;;;;;;17.90;8.80;;;;;;;17.31;100.00;98734.96;106938;1273;25322;-71
2023/04/26 06:46:41;;;;;;;21.50;7.10;;;;;;;17.45;100.00;98747.34;107079;1269;25297;-73
2023/04/26 06:49:10;;;;;;;17.80;6.70;;;;;;;17.63;100.00;98747.36;106846;1274;25348;-70
2023/04/26 06:51:37;;;;;;;11.90;5.40;;;;;;;17.68;100.00;98761.38;107046;1266;24227;-69
2023/04/26 06:54:05;;;;;;;14.90;4.90;;;;;;;17.68;100.00;98755.27;107127;1266;22671;-69
2023/04/26 06:56:32;;;;;;;11.60;4.10;;;;;;;17.88;100.00;98754.16;107205;1273;25243;-68
2023/04/26 06:59:01;;;;;;;11.80;4.80;;;;;;;18.02;100.00;98779.83;107208;1273;23890;-69
2023/04/26 07:01:32;;;;;;;11.90;4.70;;;;;;;18.03;100.00;98807.41;107185;1274;22520;-72
2023/04/26 07:04:05;;;;;;;14.70;5.40;;;;;;;18.06;100.00;98828.73;107690;1266;22540;-73
2023/04/26 07:06:34;;;;;;;12.10;4.70;;;;;;;18.16;100.00;98819.69;108658;1251;22462;-69
2023/04/26 07:09:02;;;;;;;12.70;5.00;;;;;;;18.29;100.00;98821.90;107255;1267;22915;-69
2023/04/26 07:11:30;;;;;;;13.60;4.60;;;;;;;18.52;100.00;98806.20;106979;1273;24313;-71
2023/04/26 07:13:58;;;;;;;10.80;4.40;;;;;;;18.80;100.00;98798.09;107057;1267;22520;-68
2023/04/26 07:16:25;;;;;;;12.30;4.50;;;;;;;19.05;100.00;98819.58;106995;1272;22455;-69
2023/04/26 07:18:56;;;;;;;9.90;4.60;;;;;;;19.19;100.00;98842.80;107073;1274;22530;-72
2023/04/26 07:21:25;;;;;;;12.70;4.90;;;;;;;19.32;100.00;98841.41;107005;1274;25469;-70
2023/04/26 07:23:56;;;;;;;11.40;5.20;;;;;;;19.56;100.00;98834.25;106952;1274;22523;-70
2023/04/26 07:26:25;;;;;;;8.60;4.30;;;;;;;19.75;100.00;98863.92;107193;1267;25281;-72
2023/04/26 07:28:53;;;;;;;13.00;4.60;;;;;;;19.72;100.00;98899.53;107166;1274;22524;-72
2023/04/26 07:31:20;;;;;;;8.40;4.20;;;;;;;19.59;100.00;98928.44;107139;1274;25354;-70
2023/04/26 07:33:47;;;;;;;13.10;5.40;;;;;;;19.47;100.00;98930.34;107106;1270;22531;-68
2023/04/26 07:36:15;;;;;;;9.60;3.70;;;;;;;19.60;100.00;98942.33;107091;1274;24387;-68
2023/04/26 07:38:42;;;;;;;7.80;5.70;;;;;;;19.64;100.00;99018.17;107125;1274;25470;-68
2023/04/26 07:41:11;;;;;;;10.20;5.30;;;;;;;19.53;100.00;99068.80;107165;1273;22528;-69
2023/04/26 07:43:39;;;;;;;10.40;4.80;;;;;;;19.37;100.00;99080.14;107218;1274;25350;-69
2023/04/26 07:46:06;;;;;;;7.30;3.60;;;;;;;19.40;100.00;99087.90;107004;1274;22652;-71
2023/04/26 07:48:34;;;;;;;5.10;3.50;;;;;;;19.57;100.00;99082.12;107086;1273;22614;-73
2023/04/26 07:51:09;;;;;;;13.10;3.40;;;;;;;19.80;100.00;99089.75;107090;1274;25329;-71
2023/04/26 07:53:37;;;;;;;6.80;3.40;;;;;;;20.00;100.00;99094.61;107154;1273;22981;-72
2023/04/26 07:56:05;;;;;;;14.40;6.60;;;;;;;19.92;100.00;99121.13;107079;1271;22527;-71
2023/04/26 07:58:35;;;;;;;12.30;4.80;;;;;;;19.70;100.00;99096.05;107120;1270;24711;-71
2023/04/26 08:01:03;;;;;;;5.10;3.10;;;;;;;19.85;100.00;99083.61;107152;1256;22529;-69
2023/04/26 08:03:31;;;;;;;3.60;2.70;;;;;;;20.02;100.00;99101.98;107058;1273;22480;-72
2023/04/26 08:05:58;;;;;;;14.10;5.10;;;;;;;20.20;100.00;99116.69;107072;1272;22517;-73
2023/04/26 08:08:26;;;;;;;13.10;4.80;;;;;;;20.37;100.00;99106.55;107155;1266;22510;-73
2023/04/26 08:13:58;;;;;;;8.50;3.50;;;;;;;20.87;100.00;99143.21;107159;1267;24038;-71
2023/04/26 08:16:26;;;;;;;9.20;3.70;;;;;;;21.06;100.00;99157.35;107069;1272;22523;-74
2023/04/26 08:18:54;;;;;;;6.10;3.30;;;;;;;21.20;100.00;99187.43;107097;1269;22516;-73
2023/04/26 08:21:22;;;;;;;11.80;3.80;;;;;;;21.24;100.00;99214.13;107209;1272;22650;-70
2023/04/26 08:23:49;;;;;;;6.30;3.10;;;;;;;21.40;100.00;99219.33;107071;1267;25291;-71
2023/04/26 08:26:18;;;;;;;8.30;3.90;;;;;;;21.60;100.00;99245.86;107086;1269;24244;-70
2023/04/26 08:28:45;;;;;;;4.80;2.60;;;;;;;21.78;100.00;99260.15;106844;1270;22527;-73
2023/04/26 08:31:13;;;;;;;10.70;3.10;;;;;;;21.99;100.00;99261.77;107084;1273;22786;-69
2023/04/26 08:33:43;;;;;;;7.40;2.80;;;;;;;22.16;100.00;99295.63;107039;1270;22595;-71
2023/04/26 08:36:11;;;;;;;7.60;2.50;;;;;;;22.17;100.00;99336.27;107082;1267;24295;-68
2023/04/26 08:38:39;;;;;;;16.00;3.90;;;;;;;22.03;100.00;99348.61;107047;1273;24324;-69
2023/04/26 08:41:07;;;;;;;14.60;6.80;;;;;;;21.92;100.00;99373.30;107090;1267;22583;-70
2023/04/26 08:43:35;;;;;;;17.60;9.80;;;;;;;21.84;100.00;99381.09;107062;1272;22601;-70
2023/04/26 08:46:04;;;;;;;11.50;6.00;;;;;;;21.83;100.00;99401.29;106931;1269;22536;-69
2023/04/26 08:48:32;;;;;;;4.70;3.30;;;;;;;21.70;100.00;99416.02;107105;1272;22569;-70
2023/04/26 08:51:00;;;;;;;7.00;2.50;;;;;;;21.53;100.00;99421.28;107008;1270;26582;-70
2023/04/26 08:53:27;;;;;;;8.80;2.90;;;;;;;21.34;100.00;99426.66;106873;1267;22523;-70
2023/04/26 08:55:54;;;;;;;6.00;2.80;;;;;;;21.22;100.00;99422.89;107069;1274;26515;-70
2023/04/26 08:58:22;;;;;;;5.00;2.20;;;;;;;21.20;100.00;99432.59;107033;1274;22528;-72
2023/04/26 09:00:49;;;;;;;9.20;2.70;;;;;;;21.15;100.00;99422.95;107286;1267;25347;-70
2023/04/26 09:03:16;;;;;;;6.20;2.40;;;;;;;21.34;100.00;99412.17;107025;1273;22523;-70
2023/04/26 09:05:44;;;;;;;8.40;2.90;;;;;;;21.63;100.00;99412.64;106996;1270;22480;-70
2023/04/26 09:08:17;;;;;;;6.80;2.80;;;;;;;21.86;100.00;99423.42;107057;1273;24259;-73
2023/04/26 09:10:44;;;;;;;6.70;2.40;;;;;;;21.82;100.00;99424.61;106966;1273;22575;-75
2023/04/26 09:13:13;;;;;;;4.80;2.20;;;;;;;21.71;100.00;99436.48;106991;1273;24218;-70
2023/04/26 09:15:40;;;;;;;7.40;3.30;;;;;;;21.50;100.00;99421.58;107320;1273;25344;-73
2023/04/26 09:18:21;;;;;;;5.70;2.40;;;;;;;21.54;100.00;99403.63;107165;1267;22521;-72
2023/04/26 09:21:02;;;;;;;10.30;2.50;;;;;;;21.81;100.00;99398.45;107256;1274;22840;-70
2023/04/26 09:23:30;;;;;;;11.60;3.20;;;;;;;22.08;100.00;99393.02;107184;1274;22534;-69
2023/04/26 09:26:19;;;;;;;7.50;2.60;;;;;;;22.42;100.00;99399.55;107147;1274;24486;-69
2023/04/26 09:28:47;;;;;;;15.40;3.30;;;;;;;22.59;100.00;99407.69;107211;1269;24362;-72
2023/04/26 09:31:38;;;;;;;9.70;2.70;;;;;;;22.74;100.00;99401.95;106937;1267;22516;-72
2023/04/26 09:34:05;;;;;;;11.90;4.70;;;;;;;22.89;100.00;99409.63;107848;1267;22669;-73
2023/04/26 09:36:46;;;;;;;48.20;29.10;;;;;;;23.02;100.00;99408.70;107027;1266;22535;-68
2023/04/26 09:39:13;;;;;;;13.00;3.20;;;;;;;23.12;100.00;99408.95;107196;1267;22519;-68
2023/04/26 09:41:43;;;;;;;3.70;2.50;;;;;;;23.24;100.00;99413.68;106894;1273;22633;-69
2023/04/26 09:44:21;;;;;;;13.00;4.90;;;;;;;23.14;100.00;99407.68;107090;1272;22759;-69
2023/04/26 09:47:00;;;;;;;6.00;3.30;;;;;;;23.33;100.00;99400.19;106980;1274;24231;-70
2023/04/26 09:49:41;;;;;;;6.70;1.60;;;;;;;23.57;100.00;99421.00;107294;1267;22519;-68
2023/04/26 09:52:09;;;;;;;5.00;1.60;;;;;;;23.67;100.00;99442.45;106855;1269;24384;-69
2023/04/26 09:54:44;;;;;;;5.70;1.80;;;;;;;23.56;100.00;99453.35;107346;1267;22577;-68
2023/04/26 09:57:12;;;;;;;13.10;2.20;;;;;;;23.36;100.00;99453.17;106885;1272;22753;-67
2023/04/26 09:59:46;;;;;;;7.80;2.30;;;;;;;23.13;100.00;99452.23;107182;1272;24256;-74
2023/04/26 10:02:25;;;;;;;7.60;2.80;;;;;;;22.91;100.00;99449.94;107127;1267;25337;-70
2023/04/26 10:04:55;;;;;;;3.00;1.40;;;;;;;22.96;100.00;99455.97;107197;1272;22752;-72
2023/04/26 10:07:24;;;;;;;4.70;2.20;;;;;;;22.83;100.00;99452.37;107106;1274;22508;-71
2023/04/26 10:09:51;;;;;;;16.20;3.70;;;;;;;22.69;100.00;99441.48;107138;1269;24321;-71
2023/04/26 10:12:19;;;;;;;15.70;3.90;;;;;;;22.83;100.00;99435.77;107093;1272;22517;-70
2023/04/26 10:14:47;;;;;;;18.30;4.40;;;;;;;23.17;100.00;99431.62;107095;1272;22524;-72
2023/04/26 10:17:14;;;;;;;5.70;1.80;;;;;;;23.55;100.00;99433.86;107107;1270;22521;-71
2023/04/26 10:19:43;;;;;;;13.50;3.10;;;;;;;23.73;100.00;99441.86;107165;1270;26291;-71
2023/04/26 10:22:16;;;;;;;5.90;2.00;;;;;;;23.87;100.00;99436.05;107315;1270;22564;-70
2023/04/26 10:24:44;;;;;;;6.10;2.00;;;;;;;23.85;100.00;99446.48;106975;1269;22627;-71
2023/04/26 10:27:12;;;;;;;7.60;1.90;;;;;;;23.65;100.00;99438.08;107030;1273;25415;-70
2023/04/26 10:29:52;;;;;;;20.80;3.30;;;;;;;23.59;100.00;99433.38;107111;1270;24220;-69
2023/04/26 10:32:20;;;;;;;6.10;2.10;;;;;;;23.73;100.00;99426.61;107018;1273;22510;-70
2023/04/26 10:35:11;;;;;;;4.90;2.10;;;;;;;24.00;100.00;99431.17;107046;1267;25407;-73
2023/04/26 10:37:59;;;;;;;4.40;2.10;;;;;;;24.05;100.00;99441.71;106974;1267;22525;-71
2023/04/26 10:40:31;;;;;;;4.40;2.00;;;;;;;23.74;100.00;99447.71;107180;1267;23225;-73
2023/04/26 10:43:08;;;;;;;9.20;2.40;;;;;;;23.39;100.00;99441.20;107071;1272;22524;-74
2023/04/26 10:45:36;;;;;;;10.10;3.00;;;;;;;23.03;100.00;99437.98;107159;1267;24032;-74
2023/04/26 10:48:29;;;;;;;9.30;2.70;;;;;;;22.92;100.00;99438.98;107159;1267;22779;-76
2023/04/26 10:51:00;;;;;;;7.60;2.70;;;;;;;22.85;100.00;99439.59;107145;1272;22541;-73
2023/04/26 10:53:44;;;;;;;3.90;2.00;;;;;;;22.80;100.00;99438.91;107176;1273;22761;-70
2023/04/26 10:56:27;;;;;;;;;;;;;;;22.90;100.00;99431.80;107253;1270;22499;-72
2023/04/26 10:59:14;;;;;;;9.40;3.00;;;;;;;23.04;100.00;99435.56;107180;1272;22513;-69
2023/04/26 11:01:45;;;;;;;11.60;3.20;;;;;;;23.07;100.00;99431.64;107156;1273;22529;-71
2023/04/26 11:04:12;;;;;;;10.50;3.00;;;;;;;23.06;100.00;99431.46;107111;1273;22529;-69
2023/04/26 11:06:53;;;;;;;4.80;2.60;;;;;;;23.03;100.00;99422.55;106925;1272;22517;-70
2023/04/26 11:09:40;;;;;;;6.30;2.20;;;;;;;22.79;100.00;99427.71;106868;1267;24231;-70
2023/04/26 11:12:11;;;;;;;5.50;2.30;;;;;;;22.67;100.00;99422.58;107042;1274;22625;-70
2023/04/26 11:14:43;;;;;;;9.00;2.60;;;;;;;22.62;100.00;99419.84;107069;1274;22598;-70
2023/04/26 11:17:10;;;;;;;6.90;2.60;;;;;;;22.27;100.00;99416.65;107006;1267;25465;-74
2023/04/26 11:19:40;;;;;;;7.90;3.20;;;;;;;22.01;100.00;99409.54;106863;1267;22531;-73
2023/04/26 11:22:07;;;;;;;9.30;3.50;;;;;;;21.91;100.00;99400.26;107156;1267;22532;-74
2023/04/26 11:24:37;;;;;;;7.60;3.10;;;;;;;21.90;100.00;99398.21;107616;1270;22661;-75
2023/04/26 11:27:09;;;;;;;12.10;3.10;;;;;;;21.91;100.00;99391.06;107402;1275;25628;-75